createdAt,value
2023-04-27T00:00:56.399Z,226.99
2023-04-27T00:01:56.400Z,228.00
2023-04-27T00:02:56.499Z,228.51
2023-04-27T00:03:56.513Z,229.64
2023-04-27T00:04:56.694Z,229.17
2023-04-27T00:05:56.530Z,230.31
2023-04-27T00:06:56.399Z,229.43
2023-04-27T00:07:56.388Z,229.08
2023-04-27T00:08:56.454Z,228.18
2023-04-27T00:09:56.407Z,227.34
2023-04-27T00:10:56.401Z,227.38
2023-04-27T00:11:56.411Z,227.06
2023-04-27T00:12:56.408Z,230.05
2023-04-27T00:13:56.423Z,230.58
2023-04-27T00:14:56.436Z,231.34
2023-04-27T00:15:56.470Z,230.94
2023-04-27T00:16:56.462Z,231.91
2023-04-27T00:17:56.489Z,230.89
2023-04-27T00:18:56.464Z,230.77
2023-04-27T00:19:56.480Z,229.53
2023-04-27T00:20:56.484Z,230.11
2023-04-27T00:21:56.488Z,230.06
2023-04-27T00:22:56.480Z,230.04
2023-04-27T00:23:56.519Z,228.64
2023-04-27T00:24:56.481Z,230.24
2023-04-27T00:25:56.504Z,229.95
2023-04-27T00:26:56.528Z,229.80
2023-04-27T00:27:56.571Z,231.09
2023-04-27T00:28:56.560Z,230.53
2023-04-27T00:29:56.553Z,231.33
2023-04-27T00:30:56.561Z,228.51
2023-04-27T00:31:56.622Z,230.78
2023-04-27T00:32:56.592Z,231.13
2023-04-27T00:33:56.578Z,232.66
2023-04-27T00:34:56.593Z,230.64
2023-04-27T00:35:56.594Z,231.23
2023-04-27T00:36:56.596Z,230.78
2023-04-27T00:37:56.621Z,231.74
2023-04-27T00:38:56.612Z,231.19
2023-04-27T00:39:56.590Z,230.84
2023-04-27T00:40:56.591Z,231.28
2023-04-27T00:41:56.609Z,230.56
2023-04-27T00:42:56.602Z,230.82
2023-04-27T00:43:56.606Z,230.90
2023-04-27T00:44:56.615Z,230.85
2023-04-27T00:45:56.671Z,230.10
2023-04-27T00:46:56.655Z,229.97
2023-04-27T00:47:56.672Z,232.75
2023-04-27T00:48:56.681Z,231.84
2023-04-27T00:49:56.670Z,228.71
2023-04-27T00:50:56.725Z,231.31
2023-04-27T00:51:56.719Z,233.62
2023-04-27T00:52:56.722Z,233.15
2023-04-27T00:53:56.750Z,231.27
2023-04-27T00:54:56.789Z,229.38
2023-04-27T00:55:56.856Z,230.79
2023-04-27T00:56:56.878Z,231.47
2023-04-27T00:57:56.871Z,232.17
2023-04-27T00:58:56.897Z,232.60
2023-04-27T00:59:56.902Z,231.54
2023-04-27T01:00:56.958Z,233.14
2023-04-27T01:01:56.911Z,232.48
2023-04-27T01:02:57.009Z,230.37
2023-04-27T01:03:57.076Z,231.00
2023-04-27T01:04:56.946Z,231.63
2023-04-27T01:05:56.936Z,233.83
2023-04-27T01:06:56.952Z,233.11
2023-04-27T01:07:56.963Z,233.17
2023-04-27T01:08:56.946Z,234.07
2023-04-27T01:09:56.972Z,231.73
2023-04-27T01:10:56.951Z,231.86
2023-04-27T01:11:56.962Z,231.21
2023-04-27T01:12:56.988Z,231.76
2023-04-27T01:13:57.037Z,232.98
2023-04-27T01:14:57.002Z,232.39
2023-04-27T01:15:57.003Z,233.34
2023-04-27T01:16:57.033Z,232.92
2023-04-27T01:17:57.068Z,233.14
2023-04-27T01:18:57.039Z,232.57
2023-04-27T01:19:57.052Z,232.62
2023-04-27T01:20:57.048Z,230.90
2023-04-27T01:21:57.051Z,231.63
2023-04-27T01:22:57.037Z,231.41
2023-04-27T01:23:57.044Z,232.39
2023-04-27T01:24:57.066Z,232.16
2023-04-27T01:25:57.066Z,234.52
2023-04-27T01:26:57.057Z,235.17
2023-04-27T01:27:57.076Z,235.06
2023-04-27T01:28:57.076Z,234.64
2023-04-27T01:29:57.115Z,234.24
2023-04-27T01:30:57.125Z,233.29
2023-04-27T01:31:57.101Z,233.28
2023-04-27T01:32:57.149Z,232.74
2023-04-27T01:33:57.128Z,235.66
2023-04-27T01:34:57.127Z,233.65
2023-04-27T01:35:57.126Z,235.34
2023-04-27T01:36:57.157Z,234.11
2023-04-27T01:37:57.183Z,234.37
2023-04-27T01:38:57.161Z,233.65
2023-04-27T01:39:57.186Z,234.21
2023-04-27T01:40:57.188Z,233.89
2023-04-27T01:41:58.521Z,234.00
2023-04-27T01:42:57.182Z,233.44
2023-04-27T01:43:57.242Z,234.92
2023-04-27T01:44:57.215Z,234.69
2023-04-27T01:45:57.220Z,234.17
2023-04-27T01:46:57.216Z,233.83
2023-04-27T01:47:57.237Z,232.46
2023-04-27T01:48:57.208Z,233.00
2023-04-27T01:49:57.236Z,233.99
2023-04-27T01:50:57.227Z,232.33
2023-04-27T01:51:57.237Z,232.90
2023-04-27T01:52:57.240Z,234.28
2023-04-27T01:53:57.270Z,233.38
2023-04-27T01:54:57.292Z,232.36
2023-04-27T01:55:57.276Z,232.29
2023-04-27T01:56:57.277Z,233.26
2023-04-27T01:57:57.267Z,233.33
2023-04-27T01:58:57.267Z,234.22
2023-04-27T01:59:57.291Z,234.22
2023-04-27T02:00:57.293Z,235.78
2023-04-27T02:01:57.326Z,236.06
2023-04-27T02:02:57.479Z,236.20
2023-04-27T02:03:57.573Z,234.93
2023-04-27T02:04:57.353Z,236.77
2023-04-27T02:05:57.383Z,235.97
2023-04-27T02:06:57.380Z,236.52
2023-04-27T02:07:57.374Z,235.65
2023-04-27T02:08:57.403Z,238.99
2023-04-27T02:09:57.429Z,238.01
2023-04-27T02:10:57.428Z,237.16
2023-04-27T02:11:57.422Z,235.52
2023-04-27T02:12:57.484Z,234.94
2023-04-27T02:13:57.491Z,236.77
2023-04-27T02:14:57.494Z,235.23
2023-04-27T02:15:57.511Z,237.62
2023-04-27T02:16:57.527Z,235.52
2023-04-27T02:17:57.562Z,234.53
2023-04-27T02:18:57.499Z,235.12
2023-04-27T02:19:57.580Z,237.23
2023-04-27T02:20:57.532Z,237.14
2023-04-27T02:21:57.540Z,238.29
2023-04-27T02:22:57.521Z,238.42
2023-04-27T02:23:57.530Z,237.55
2023-04-27T02:24:57.538Z,237.35
2023-04-27T02:25:57.569Z,236.37
2023-04-27T02:26:57.560Z,238.27
2023-04-27T02:27:57.580Z,237.71
2023-04-27T02:28:57.575Z,237.42
2023-04-27T02:29:57.629Z,237.22
2023-04-27T02:30:57.584Z,237.75
2023-04-27T02:31:57.623Z,236.89
2023-04-27T02:32:57.638Z,238.21
2023-04-27T02:33:57.592Z,238.67
2023-04-27T02:34:57.593Z,238.00
2023-04-27T02:35:57.623Z,238.13
2023-04-27T02:36:57.621Z,239.32
2023-04-27T02:37:57.624Z,239.97
2023-04-27T02:38:57.639Z,241.89
2023-04-27T02:39:57.649Z,241.70
2023-04-27T02:40:57.622Z,240.08
2023-04-27T02:41:57.636Z,240.31
2023-04-27T02:42:57.649Z,241.40
2023-04-27T02:43:57.645Z,241.92
2023-04-27T02:44:57.638Z,242.82
2023-04-27T02:45:57.651Z,242.27
2023-04-27T02:46:57.734Z,242.94
2023-04-27T02:47:57.684Z,241.85
2023-04-27T02:48:57.672Z,243.26
2023-04-27T02:49:57.737Z,241.65
2023-04-27T02:50:57.663Z,243.38
2023-04-27T02:51:57.682Z,242.13
2023-04-27T02:52:57.681Z,243.04
2023-04-27T02:53:57.675Z,243.00
2023-04-27T02:54:57.697Z,243.07
2023-04-27T02:55:57.702Z,242.76
2023-04-27T02:56:57.732Z,244.42
2023-04-27T02:57:57.733Z,244.48
2023-04-27T02:58:57.714Z,244.34
2023-04-27T02:59:57.790Z,243.80
2023-04-27T03:00:57.883Z,245.44
2023-04-27T03:01:57.761Z,245.12
2023-04-27T03:02:57.906Z,245.15
2023-04-27T03:03:57.977Z,245.95
2023-04-27T03:04:57.768Z,244.88
2023-04-27T03:05:57.770Z,244.94
2023-04-27T03:06:57.764Z,244.09
2023-04-27T03:07:57.768Z,244.19
2023-04-27T03:08:57.779Z,244.81
2023-04-27T03:09:57.804Z,245.33
2023-04-27T03:10:57.778Z,246.14
2023-04-27T03:11:57.782Z,248.02
2023-04-27T03:12:57.790Z,245.86
2023-04-27T03:13:57.806Z,245.07
2023-04-27T03:14:57.800Z,246.22
2023-04-27T03:15:57.847Z,246.74
2023-04-27T03:16:57.829Z,244.50
2023-04-27T03:17:57.851Z,244.32
2023-04-27T03:18:57.821Z,246.02
2023-04-27T03:19:57.869Z,244.06
2023-04-27T03:20:57.818Z,243.81
2023-04-27T03:21:57.838Z,244.57
2023-04-27T03:22:57.835Z,244.41
2023-04-27T03:23:57.838Z,246.88
2023-04-27T03:24:57.863Z,245.64
2023-04-27T03:25:57.854Z,245.53
2023-04-27T03:26:57.861Z,247.04
2023-04-27T03:27:57.858Z,246.16
2023-04-27T03:28:57.876Z,246.46
2023-04-27T03:29:57.912Z,246.69
2023-04-27T03:30:57.878Z,247.00
2023-04-27T03:31:57.898Z,247.19
2023-04-27T03:32:57.894Z,246.25
2023-04-27T03:33:57.883Z,247.31
2023-04-27T03:34:57.877Z,247.03
2023-04-27T03:35:57.983Z,246.68
2023-04-27T03:36:57.984Z,247.26
2023-04-27T03:37:57.992Z,247.08
2023-04-27T03:38:57.985Z,245.29
2023-04-27T03:39:58.010Z,246.19
2023-04-27T03:40:57.999Z,247.55
2023-04-27T03:41:57.996Z,248.90
2023-04-27T03:42:59.167Z,249.64
2023-04-27T03:43:58.016Z,249.36
2023-04-27T03:44:58.025Z,249.97
2023-04-27T03:45:58.065Z,248.63
2023-04-27T03:46:58.040Z,248.13
2023-04-27T03:47:58.074Z,247.57
2023-04-27T03:48:58.042Z,248.38
2023-04-27T03:49:58.044Z,249.38
2023-04-27T03:50:58.097Z,249.24
2023-04-27T03:51:58.061Z,249.10
2023-04-27T03:52:58.044Z,249.17
2023-04-27T03:53:58.043Z,249.55
2023-04-27T03:54:58.057Z,250.00
2023-04-27T03:55:58.061Z,249.77
2023-04-27T03:56:58.061Z,248.33
2023-04-27T03:57:58.073Z,249.97
2023-04-27T03:58:58.056Z,247.09
2023-04-27T03:59:58.102Z,247.90
2023-04-27T04:00:58.099Z,246.49
2023-04-27T04:02:00.279Z,247.03
2023-04-27T04:02:58.173Z,246.77
2023-04-27T04:03:58.146Z,247.95
2023-04-27T04:04:58.283Z,246.99
2023-04-27T04:05:58.064Z,246.46
2023-04-27T04:06:58.034Z,246.26
2023-04-27T04:07:58.053Z,247.54
2023-04-27T04:08:58.041Z,248.98
2023-04-27T04:09:58.056Z,247.81
2023-04-27T04:10:58.018Z,248.61
2023-04-27T04:11:58.023Z,247.60
2023-04-27T04:12:58.015Z,249.28
2023-04-27T04:13:57.996Z,248.81
2023-04-27T04:14:58.002Z,249.53
2023-04-27T04:15:58.034Z,248.73
2023-04-27T04:16:57.964Z,247.62
2023-04-27T04:17:58.019Z,247.25
2023-04-27T04:18:57.964Z,246.77
2023-04-27T04:19:57.947Z,248.07
2023-04-27T04:20:57.959Z,248.48
2023-04-27T04:21:57.946Z,248.94
2023-04-27T04:22:57.940Z,247.67
2023-04-27T04:23:57.929Z,248.21
2023-04-27T04:24:57.923Z,247.97
2023-04-27T04:25:57.924Z,247.07
2023-04-27T04:26:57.898Z,247.20
2023-04-27T04:27:57.898Z,247.40
2023-04-27T04:28:57.900Z,247.47
2023-04-27T04:29:57.877Z,248.70
2023-04-27T04:30:57.911Z,248.33
2023-04-27T04:31:57.882Z,247.90
2023-04-27T04:32:57.869Z,248.63
2023-04-27T04:33:57.870Z,248.44
2023-04-27T04:34:57.855Z,247.40
2023-04-27T04:35:57.856Z,248.98
2023-04-27T04:36:57.852Z,248.33
2023-04-27T04:37:57.823Z,248.80
2023-04-27T04:38:57.816Z,249.01
2023-04-27T04:39:57.804Z,248.50
2023-04-27T04:40:57.806Z,248.78
2023-04-27T04:41:57.792Z,247.70
2023-04-27T04:42:57.792Z,248.69
2023-04-27T04:43:57.786Z,249.61
2023-04-27T04:44:57.771Z,248.70
2023-04-27T04:45:57.796Z,249.40
2023-04-27T04:46:57.811Z,248.81
2023-04-27T04:47:57.814Z,247.74
2023-04-27T04:48:57.758Z,250.00
2023-04-27T04:49:57.736Z,247.76
2023-04-27T04:50:57.732Z,249.25
2023-04-27T04:51:57.734Z,249.78
2023-04-27T04:52:57.730Z,250.00
2023-04-27T04:53:58.640Z,248.77
2023-04-27T04:54:57.702Z,248.25
2023-04-27T04:55:57.717Z,248.53
2023-04-27T04:56:57.719Z,248.99
2023-04-27T04:57:57.725Z,249.16
2023-04-27T04:58:57.677Z,248.92
2023-04-27T04:59:57.688Z,248.32
2023-04-27T05:00:57.679Z,249.94
2023-04-27T05:01:57.776Z,250.29
2023-04-27T05:02:57.780Z,250.00
2023-04-27T05:03:57.773Z,250.26
2023-04-27T05:04:58.010Z,249.56
2023-04-27T05:05:57.644Z,249.53
2023-04-27T05:06:57.625Z,248.70
2023-04-27T05:07:57.645Z,246.73
2023-04-27T05:08:57.621Z,247.37
2023-04-27T05:09:57.609Z,247.06
2023-04-27T05:10:57.618Z,247.45
2023-04-27T05:11:57.606Z,246.12
2023-04-27T05:12:57.585Z,245.57
2023-04-27T05:13:57.595Z,245.64
2023-04-27T05:14:57.591Z,246.27
2023-04-27T05:15:57.599Z,245.91
2023-04-27T05:16:57.569Z,245.13
2023-04-27T05:17:57.572Z,246.40
2023-04-27T05:18:57.572Z,245.49
2023-04-27T05:19:57.561Z,247.58
2023-04-27T05:20:57.552Z,247.15
2023-04-27T05:21:57.552Z,246.64
2023-04-27T05:22:57.520Z,247.40
2023-04-27T05:23:57.518Z,247.16
2023-04-27T05:24:57.515Z,249.34
2023-04-27T05:25:57.517Z,249.88
2023-04-27T05:26:57.514Z,248.70
2023-04-27T05:27:57.481Z,247.03
2023-04-27T05:28:57.581Z,245.41
2023-04-27T05:29:57.475Z,245.20
2023-04-27T05:30:57.466Z,248.87
2023-04-27T05:31:57.516Z,247.28
2023-04-27T05:32:57.477Z,247.13
2023-04-27T05:33:57.447Z,249.02
2023-04-27T05:34:57.448Z,249.80
2023-04-27T05:35:57.447Z,248.71
2023-04-27T05:36:57.440Z,248.39
2023-04-27T05:37:57.420Z,247.56
2023-04-27T05:38:57.418Z,249.95
2023-04-27T05:39:57.437Z,249.74
2023-04-27T05:40:57.456Z,249.17
2023-04-27T05:41:57.444Z,250.00
2023-04-27T05:42:57.439Z,250.08
2023-04-27T05:43:57.454Z,249.64
2023-04-27T05:44:57.451Z,250.00
2023-04-27T05:45:57.534Z,250.00
2023-04-27T05:46:57.499Z,249.95
2023-04-27T05:47:57.588Z,250.00
2023-04-27T05:48:57.644Z,249.92
2023-04-27T05:49:57.686Z,249.75
2023-04-27T05:50:57.736Z,250.00
2023-04-27T05:51:57.801Z,249.89
2023-04-27T05:52:57.835Z,249.96
2023-04-27T05:53:57.896Z,249.97
2023-04-27T05:54:57.923Z,249.88
2023-04-27T05:55:58.004Z,249.52
2023-04-27T05:56:58.006Z,250.00
2023-04-27T05:58:07.793Z,250.00
2023-04-27T05:59:01.162Z,250.07
2023-04-27T05:59:58.040Z,250.11
2023-04-27T06:00:58.036Z,250.53
2023-04-27T06:01:58.073Z,251.25
2023-04-27T06:02:58.150Z,252.35
2023-04-27T06:03:58.034Z,253.86
2023-04-27T06:04:58.026Z,249.86
2023-04-27T06:05:59.060Z,249.82
2023-04-27T06:06:57.983Z,249.04
2023-04-27T06:07:57.986Z,249.49
2023-04-27T06:08:57.972Z,249.31
2023-04-27T06:09:57.979Z,250.00
2023-04-27T06:10:57.978Z,249.73
2023-04-27T06:11:57.948Z,249.76
2023-04-27T06:12:58.449Z,249.35
2023-04-27T06:13:57.947Z,249.32
2023-04-27T06:14:57.930Z,248.33
2023-04-27T06:15:57.977Z,249.41
2023-04-27T06:16:57.915Z,249.94
2023-04-27T06:17:57.989Z,249.03
2023-04-27T06:18:57.911Z,248.63
2023-04-27T06:19:57.904Z,249.19
2023-04-27T06:20:57.952Z,249.88
2023-04-27T06:21:57.892Z,249.64
2023-04-27T06:22:57.881Z,249.57
2023-04-27T06:23:57.861Z,249.71
2023-04-27T06:24:57.868Z,249.57
2023-04-27T06:25:57.860Z,249.27
2023-04-27T06:26:57.848Z,250.08
2023-04-27T06:27:57.841Z,248.72
2023-04-27T06:28:57.835Z,248.50
2023-04-27T06:29:57.864Z,244.72
2023-04-27T06:30:57.971Z,240.73
2023-04-27T06:31:57.886Z,224.76
2023-04-27T06:32:57.887Z,223.77
2023-04-27T06:33:57.870Z,221.84
2023-04-27T06:34:57.914Z,225.56
2023-04-27T06:35:57.966Z,231.16
2023-04-27T06:36:57.978Z,235.63
2023-04-27T06:37:58.468Z,237.92
2023-04-27T06:38:58.149Z,240.42
2023-04-27T06:39:58.072Z,241.75
2023-04-27T06:40:58.077Z,243.49
2023-04-27T06:41:58.111Z,245.43
2023-04-27T06:42:58.145Z,246.26
2023-04-27T06:43:59.060Z,247.37
2023-04-27T06:44:58.172Z,248.39
2023-04-27T06:45:58.244Z,249.23
2023-04-27T06:46:58.247Z,249.13
2023-04-27T06:47:58.459Z,249.46
2023-04-27T06:48:58.255Z,249.44
2023-04-27T06:49:58.296Z,249.39
2023-04-27T06:50:58.289Z,249.23
2023-04-27T06:51:58.324Z,249.73
2023-04-27T06:52:58.320Z,249.85
2023-04-27T06:53:58.338Z,249.74
2023-04-27T06:54:58.348Z,249.77
2023-04-27T06:55:58.348Z,248.67
2023-04-27T06:56:58.368Z,242.51
2023-04-27T06:57:58.363Z,243.49
2023-04-27T06:58:58.389Z,245.48
2023-04-27T06:59:58.741Z,246.74
2023-04-27T07:00:58.453Z,246.74
2023-04-27T07:01:58.445Z,247.05
2023-04-27T07:02:58.564Z,242.90
2023-04-27T07:03:58.590Z,241.71
2023-04-27T07:04:58.577Z,242.96
2023-04-27T07:05:58.447Z,244.60
2023-04-27T07:06:58.448Z,245.55
2023-04-27T07:07:59.817Z,246.75
2023-04-27T07:08:58.538Z,248.44
2023-04-27T07:09:58.434Z,248.22
2023-04-27T07:10:58.422Z,247.50
2023-04-27T07:11:58.408Z,247.61
2023-04-27T07:12:58.399Z,248.05
2023-04-27T07:13:58.396Z,248.60
2023-04-27T07:14:58.396Z,248.99
2023-04-27T07:15:58.417Z,242.99
2023-04-27T07:16:58.368Z,244.77
2023-04-27T07:17:58.621Z,246.27
2023-04-27T07:18:58.385Z,248.81
2023-04-27T07:19:58.345Z,247.90
2023-04-27T07:20:58.330Z,244.26
2023-04-27T07:21:58.345Z,245.35
2023-04-27T07:22:58.465Z,246.79
2023-04-27T07:23:58.332Z,247.50
2023-04-27T07:24:58.302Z,248.42
2023-04-27T07:25:58.316Z,245.20
2023-04-27T07:26:58.313Z,245.79
2023-04-27T07:27:58.478Z,244.84
2023-04-27T07:28:58.291Z,241.43
2023-04-27T07:29:58.296Z,240.70
2023-04-27T07:30:58.305Z,243.37
2023-04-27T07:31:58.290Z,243.50
2023-04-27T07:32:58.324Z,245.32
2023-04-27T07:33:58.263Z,248.39
2023-04-27T07:34:58.250Z,249.35
2023-04-27T07:35:58.373Z,250.00
2023-04-27T07:36:58.231Z,250.00
2023-04-27T07:37:58.251Z,249.50
2023-04-27T07:38:58.220Z,249.92
2023-04-27T07:39:58.233Z,248.32
2023-04-27T07:40:58.224Z,246.37
2023-04-27T07:41:58.245Z,246.26
2023-04-27T07:42:58.205Z,245.95
2023-04-27T07:43:58.194Z,245.69
2023-04-27T07:44:58.202Z,244.33
2023-04-27T07:45:58.249Z,244.43
2023-04-27T07:46:58.178Z,244.41
2023-04-27T07:47:58.947Z,243.60
2023-04-27T07:48:58.162Z,242.97
2023-04-27T07:49:58.162Z,240.66
2023-04-27T07:50:58.155Z,238.26
2023-04-27T07:51:58.134Z,240.15
2023-04-27T07:52:58.152Z,240.06
2023-04-27T07:53:58.126Z,240.77
2023-04-27T07:54:58.129Z,241.53
2023-04-27T07:55:58.110Z,239.69
2023-04-27T07:56:58.094Z,239.31
2023-04-27T07:57:58.103Z,240.03
2023-04-27T07:58:58.095Z,240.11
2023-04-27T07:59:58.076Z,239.78
2023-04-27T08:00:58.092Z,239.96
2023-04-27T08:02:14.974Z,238.82
2023-04-27T08:02:59.281Z,238.92
2023-04-27T08:03:58.268Z,239.11
2023-04-27T08:04:58.321Z,239.50
2023-04-27T08:05:58.291Z,240.17
2023-04-27T08:06:58.195Z,238.51
2023-04-27T08:07:58.515Z,226.49
2023-04-27T08:08:58.489Z,228.00
2023-04-27T08:09:58.022Z,230.18
2023-04-27T08:10:58.011Z,233.31
2023-04-27T08:11:58.013Z,232.51
2023-04-27T08:12:57.978Z,233.01
2023-04-27T08:13:57.973Z,231.77
2023-04-27T08:14:57.973Z,228.69
2023-04-27T08:15:57.955Z,230.39
2023-04-27T08:16:58.078Z,231.33
2023-04-27T08:17:57.978Z,231.53
2023-04-27T08:18:59.275Z,231.63
2023-04-27T08:19:58.170Z,229.95
2023-04-27T08:20:58.497Z,224.44
2023-04-27T08:21:58.205Z,210.76
2023-04-27T08:22:58.235Z,202.53
2023-04-27T08:23:58.200Z,199.39
2023-04-27T08:24:58.218Z,203.56
2023-04-27T08:25:58.239Z,213.02
2023-04-27T08:26:58.237Z,210.73
2023-04-27T08:27:58.251Z,210.60
2023-04-27T08:28:58.274Z,208.12
2023-04-27T08:29:58.298Z,205.07
2023-04-27T08:30:58.344Z,200.63
2023-04-27T08:31:58.510Z,197.88
2023-04-27T08:32:58.394Z,195.67
2023-04-27T08:33:58.424Z,196.58
2023-04-27T08:34:58.458Z,191.94
2023-04-27T08:35:58.501Z,187.27
2023-04-27T08:36:58.519Z,172.13
2023-04-27T08:37:58.583Z,167.55
2023-04-27T08:38:58.630Z,173.39
2023-04-27T08:39:58.673Z,176.20
2023-04-27T08:41:04.760Z,173.73
2023-04-27T08:41:59.679Z,173.78
2023-04-27T08:42:58.673Z,173.91
2023-04-27T08:43:59.702Z,172.99
2023-04-27T08:44:58.666Z,171.20
2023-04-27T08:45:58.662Z,172.39
2023-04-27T08:46:58.663Z,180.19
2023-04-27T08:47:58.688Z,182.32
2023-04-27T08:48:58.641Z,177.67
2023-04-27T08:49:58.653Z,174.67
2023-04-27T08:50:58.723Z,178.32
2023-04-27T08:51:58.795Z,181.27
2023-04-27T08:52:58.862Z,177.83
2023-04-27T08:53:58.995Z,178.41
2023-04-27T08:54:58.957Z,181.12
2023-04-27T08:55:59.026Z,182.19
2023-04-27T08:56:59.099Z,182.69
2023-04-27T08:57:59.133Z,182.75
2023-04-27T08:58:59.522Z,182.91
2023-04-27T08:59:59.244Z,183.61
2023-04-27T09:00:59.334Z,183.94
2023-04-27T09:01:59.344Z,176.60
2023-04-27T09:02:59.471Z,172.73
2023-04-27T09:04:00.020Z,166.71
2023-04-27T09:04:59.766Z,161.93
2023-04-27T09:06:04.997Z,158.08
2023-04-27T09:07:00.459Z,158.34
2023-04-27T09:07:59.469Z,159.67
2023-04-27T09:08:59.474Z,161.57
2023-04-27T09:09:59.447Z,161.55
2023-04-27T09:10:59.445Z,156.60
2023-04-27T09:11:59.473Z,153.44
2023-04-27T09:12:59.430Z,151.54
2023-04-27T09:13:59.449Z,152.05
2023-04-27T09:14:59.435Z,153.30
2023-04-27T09:15:59.472Z,151.24
2023-04-27T09:16:59.644Z,155.97
2023-04-27T09:17:59.414Z,163.81
2023-04-27T09:18:59.400Z,165.91
2023-04-27T09:19:59.369Z,162.96
2023-04-27T09:20:59.364Z,160.96
2023-04-27T09:21:59.371Z,166.22
2023-04-27T09:22:59.384Z,157.67
2023-04-27T09:23:59.407Z,159.46
2023-04-27T09:24:59.435Z,152.95
2023-04-27T09:25:59.548Z,148.47
2023-04-27T09:27:00.662Z,136.16
2023-04-27T09:27:59.485Z,115.59
2023-04-27T09:28:59.509Z,114.95
2023-04-27T09:29:59.572Z,122.71
2023-04-27T09:31:00.047Z,131.23
2023-04-27T09:31:59.725Z,142.03
2023-04-27T09:32:59.800Z,150.46
2023-04-27T09:33:59.671Z,160.35
2023-04-27T09:34:59.665Z,170.09
2023-04-27T09:35:59.720Z,178.43
2023-04-27T09:36:59.684Z,178.16
2023-04-27T09:37:59.699Z,190.07
2023-04-27T09:38:59.690Z,196.66
2023-04-27T09:39:59.693Z,201.13
2023-04-27T09:41:00.024Z,204.78
2023-04-27T09:41:59.732Z,207.77
2023-04-27T09:42:59.763Z,206.92
2023-04-27T09:43:59.798Z,209.05
2023-04-27T09:44:59.849Z,211.30
2023-04-27T09:46:00.057Z,212.04
2023-04-27T09:46:59.945Z,211.36
2023-04-27T09:48:00.052Z,212.10
2023-04-27T09:49:00.071Z,213.48
2023-04-27T09:50:00.131Z,213.66
2023-04-27T09:51:00.535Z,214.03
2023-04-27T09:52:00.307Z,213.82
2023-04-27T09:53:00.274Z,213.97
2023-04-27T09:54:00.322Z,215.46
2023-04-27T09:55:00.373Z,215.18
2023-04-27T09:56:00.537Z,213.94
2023-04-27T09:57:00.457Z,214.93
2023-04-27T09:58:00.503Z,217.98
2023-04-27T09:59:00.552Z,219.07
2023-04-27T10:00:00.589Z,220.54
2023-04-27T10:01:00.633Z,221.21
2023-04-27T10:02:07.297Z,217.17
2023-04-27T10:03:01.706Z,217.27
2023-04-27T10:04:00.879Z,218.10
2023-04-27T10:05:00.631Z,219.69
2023-04-27T10:06:00.635Z,222.59
2023-04-27T10:07:00.611Z,227.88
2023-04-27T10:08:00.578Z,227.57
2023-04-27T10:09:00.589Z,225.31
2023-04-27T10:10:00.575Z,227.29
2023-04-27T10:11:00.570Z,229.13
2023-04-27T10:12:00.574Z,229.91
2023-04-27T10:13:00.557Z,232.87
2023-04-27T10:14:00.532Z,234.53
2023-04-27T10:15:00.552Z,236.31
2023-04-27T10:16:00.517Z,237.69
2023-04-27T10:17:00.554Z,236.27
2023-04-27T10:18:00.553Z,234.88
2023-04-27T10:19:00.534Z,235.17
2023-04-27T10:20:00.538Z,235.46
2023-04-27T10:21:00.506Z,234.01
2023-04-27T10:22:00.527Z,233.90
2023-04-27T10:23:00.525Z,225.27
2023-04-27T10:24:00.538Z,224.15
2023-04-27T10:25:00.466Z,214.34
2023-04-27T10:26:00.460Z,205.92
2023-04-27T10:27:00.480Z,219.18
2023-04-27T10:28:00.523Z,224.64
2023-04-27T10:29:00.497Z,225.42
2023-04-27T10:30:00.540Z,227.79
2023-04-27T10:31:00.553Z,219.78
2023-04-27T10:32:00.561Z,224.29
2023-04-27T10:33:00.596Z,227.30
2023-04-27T10:34:00.631Z,227.96
2023-04-27T10:35:00.638Z,228.32
2023-04-27T10:36:00.655Z,227.63
2023-04-27T10:37:00.630Z,219.74
2023-04-27T10:38:00.626Z,214.84
2023-04-27T10:39:00.666Z,210.24
2023-04-27T10:40:00.686Z,218.36
2023-04-27T10:41:00.705Z,215.75
2023-04-27T10:42:00.722Z,142.55
2023-04-27T10:43:00.714Z,95.92
2023-04-27T10:44:00.740Z,65.40
2023-04-27T10:45:00.789Z,54.56
2023-04-27T10:46:00.856Z,37.93
2023-04-27T10:47:00.912Z,29.54
2023-04-27T10:48:01.007Z,28.77
2023-04-27T10:49:00.895Z,22.58
2023-04-27T10:50:00.924Z,24.56
2023-04-27T10:51:00.954Z,25.12
2023-04-27T10:52:01.064Z,25.00
2023-04-27T10:53:01.142Z,22.36
2023-04-27T10:54:01.100Z,26.68
2023-04-27T10:55:01.549Z,24.99
2023-04-27T10:56:01.197Z,22.31
2023-04-27T10:57:01.253Z,25.35
2023-04-27T10:58:01.296Z,26.84
2023-04-27T10:59:01.287Z,25.20
2023-04-27T11:00:01.311Z,26.68
2023-04-27T11:01:01.389Z,26.47
2023-04-27T11:02:01.381Z,25.73
2023-04-27T11:03:01.372Z,26.09
2023-04-27T11:04:01.365Z,25.54
2023-04-27T11:05:01.496Z,25.00
2023-04-27T11:06:01.433Z,25.88
2023-04-27T11:07:01.404Z,27.70
2023-04-27T11:08:01.425Z,27.77
2023-04-27T11:09:01.460Z,28.02
2023-04-27T11:10:01.527Z,33.55
2023-04-27T11:11:01.556Z,35.71
2023-04-27T11:12:01.537Z,40.20
2023-04-27T11:13:01.584Z,39.47
2023-04-27T11:14:01.612Z,42.41
2023-04-27T11:15:01.669Z,40.32
2023-04-27T11:16:01.721Z,29.95
2023-04-27T11:17:01.694Z,24.98
2023-04-27T11:18:01.773Z,23.28
2023-04-27T11:19:01.797Z,25.06
2023-04-27T11:20:01.916Z,30.50
2023-04-27T11:21:01.938Z,27.21
2023-04-27T11:22:02.073Z,26.21
2023-04-27T11:23:02.027Z,28.98
2023-04-27T11:24:02.083Z,38.01
2023-04-27T11:25:02.225Z,44.72
2023-04-27T11:26:02.176Z,53.61
2023-04-27T11:27:02.221Z,66.13
2023-04-27T11:28:02.292Z,71.55
2023-04-27T11:29:02.273Z,72.92
2023-04-27T11:30:02.304Z,81.84
2023-04-27T11:31:02.356Z,83.87
2023-04-27T11:32:02.437Z,87.59
2023-04-27T11:33:02.412Z,95.57
2023-04-27T11:34:03.989Z,104.92
2023-04-27T11:35:02.382Z,112.40
2023-04-27T11:36:02.406Z,120.96
2023-04-27T11:38:02.408Z,132.67
2023-04-27T11:39:02.489Z,139.41
2023-04-27T11:40:02.381Z,143.42
2023-04-27T11:41:02.379Z,145.12
2023-04-27T11:42:02.374Z,146.97
2023-04-27T11:43:02.337Z,148.34
2023-04-27T11:44:02.357Z,149.49
2023-04-27T11:45:02.367Z,149.74
2023-04-27T11:46:02.358Z,152.59
2023-04-27T11:47:02.486Z,153.68
2023-04-27T11:48:02.388Z,156.69
2023-04-27T11:49:02.323Z,158.56
2023-04-27T11:50:02.370Z,160.24
2023-04-27T11:51:02.307Z,160.88
2023-04-27T11:52:02.304Z,164.38
2023-04-27T11:53:02.287Z,165.98
2023-04-27T11:54:02.271Z,168.36
2023-04-27T11:55:02.300Z,170.08
2023-04-27T11:56:02.274Z,169.37
2023-04-27T11:57:02.260Z,170.80
2023-04-27T11:58:02.263Z,170.25
2023-04-27T11:59:02.229Z,170.34
2023-04-27T12:00:02.274Z,170.24
2023-04-27T12:01:02.257Z,170.48
2023-04-27T12:02:02.246Z,172.59
2023-04-27T12:03:02.305Z,171.49
2023-04-27T12:04:02.604Z,172.41
2023-04-27T12:05:02.361Z,173.64
2023-04-27T12:07:02.179Z,172.63
2023-04-27T12:08:02.177Z,175.15
2023-04-27T12:09:02.185Z,174.26
2023-04-27T12:10:02.166Z,173.62
2023-04-27T12:11:02.150Z,175.56
2023-04-27T12:12:02.147Z,175.67
2023-04-27T12:13:02.147Z,175.94
2023-04-27T12:14:02.143Z,176.07
2023-04-27T12:15:02.164Z,175.45
2023-04-27T12:16:02.144Z,174.35
2023-04-27T12:17:02.149Z,175.94
2023-04-27T12:18:02.139Z,174.43
2023-04-27T12:19:02.120Z,174.60
2023-04-27T12:20:02.125Z,173.86
2023-04-27T12:21:03.457Z,176.24
2023-04-27T12:22:02.103Z,175.10
2023-04-27T12:23:02.090Z,174.36
2023-04-27T12:24:02.077Z,172.63
2023-04-27T12:25:02.089Z,170.99
2023-04-27T12:26:02.053Z,172.14
2023-04-27T12:27:02.062Z,170.96
2023-04-27T12:28:02.050Z,168.83
2023-04-27T12:29:02.031Z,172.96
2023-04-27T12:30:02.070Z,178.71
2023-04-27T12:31:02.085Z,170.15
2023-04-27T12:32:02.036Z,169.93
2023-04-27T12:33:02.031Z,171.64